Twig, Minnesota
Current Conditions -  °F | °C
As of 2:55 PM on Tuesday 21 Oct 2014 (Local Time) from KDLH Reporting Station
Scattered Clouds Scattered Clouds  
Wind Chill: 42°   Ceiling: Unl
Heat Index: 47°   Visibility: 10mi
Dew Point: 35°   Wind: 12mph
Humidity: 63%   Direction: 90°E
Pressure: 30.2"   Gusts: NA
Location:  46.89°N, 92.36°W
Report Text: KDLH 211955Z 09010KT 10SM SCT018 08/02 A3020 RMK AO2 SLP238 T00830017
Loading
Personal Weather Stations






























Interactive Weather Map
Tropical Storm Tracking
New forecast layout! Learn more

10-Day Weather Forecast

Advertisements
Track Severe Weather on mobile